createdAt,value
2022-12-18T00:01:40.228Z,102508.34
2022-12-18T00:04:07.429Z,102506.81
2022-12-18T00:06:34.334Z,102503.75
2022-12-18T00:09:01.123Z,102496.44
2022-12-18T00:11:27.869Z,102504.88
2022-12-18T00:13:54.609Z,102506.78
2022-12-18T00:16:21.691Z,102500.38
2022-12-18T00:18:48.622Z,102496.50
2022-12-18T00:21:15.389Z,102500.34
2022-12-18T00:23:42.467Z,102500.31
2022-12-18T00:26:10.278Z,102505.16
2022-12-18T00:28:37.000Z,102504.63
2022-12-18T00:31:03.768Z,102507.31
2022-12-18T00:33:30.596Z,102519.59
2022-12-18T00:35:57.324Z,102514.41
2022-12-18T00:38:24.056Z,102524.31
2022-12-18T00:40:51.169Z,102517.97
2022-12-18T00:43:17.907Z,102510.50
2022-12-18T00:45:45.187Z,102516.06
2022-12-18T00:48:11.950Z,102504.72
2022-12-18T00:50:39.069Z,102501.75
2022-12-18T00:53:05.812Z,102504.94
2022-12-18T00:55:32.549Z,102498.50
2022-12-18T00:57:59.282Z,102501.53
2022-12-18T01:00:26.051Z,102495.63
2022-12-18T01:02:52.964Z,102503.94
2022-12-18T01:05:19.771Z,102509.41
2022-12-18T01:07:46.509Z,102517.75
2022-12-18T01:10:13.309Z,102521.59
2022-12-18T01:12:40.083Z,102517.94
2022-12-18T01:15:06.904Z,102521.00
2022-12-18T01:17:33.768Z,102527.25
2022-12-18T01:20:00.490Z,102533.53
2022-12-18T01:22:27.307Z,102538.00
2022-12-18T01:24:54.064Z,102539.41
2022-12-18T01:27:20.894Z,102541.53
2022-12-18T01:29:47.661Z,102537.41
2022-12-18T01:32:14.391Z,102533.59
2022-12-18T01:34:41.224Z,102539.38
2022-12-18T01:37:07.962Z,102529.00
2022-12-18T01:39:34.743Z,102535.56
2022-12-18T01:42:04.531Z,102536.56
2022-12-18T01:44:31.260Z,102544.03
2022-12-18T01:46:58.050Z,102556.81
2022-12-18T01:49:24.782Z,102556.81
2022-12-18T01:51:51.535Z,102561.41
2022-12-18T01:54:18.295Z,102570.25
2022-12-18T01:56:45.025Z,102573.31
2022-12-18T01:59:11.751Z,102560.28
2022-12-18T02:01:38.876Z,102560.97
2022-12-18T02:04:06.941Z,102572.78
2022-12-18T02:06:33.662Z,102568.97
2022-12-18T02:09:00.395Z,102571.34
2022-12-18T02:11:27.244Z,102572.97
2022-12-18T02:13:53.979Z,102567.97
2022-12-18T02:16:20.787Z,102567.28
2022-12-18T02:18:47.530Z,102569.69
2022-12-18T02:21:14.458Z,102565.41
2022-12-18T02:23:41.813Z,102568.28
2022-12-18T02:26:08.775Z,102562.19
2022-12-18T02:28:35.531Z,102551.66
2022-12-18T02:31:02.656Z,102554.38
2022-12-18T02:33:29.434Z,102551.41
2022-12-18T02:35:56.158Z,102541.03
2022-12-18T02:38:22.886Z,102542.50
2022-12-18T02:40:49.635Z,102549.84
2022-12-18T02:43:16.455Z,102546.19
2022-12-18T02:45:43.246Z,102556.59
2022-12-18T02:48:10.010Z,102554.53
2022-12-18T02:50:36.935Z,102542.84
2022-12-18T02:53:03.685Z,102542.72
2022-12-18T02:55:30.494Z,102544.88
2022-12-18T02:57:57.256Z,102545.84
2022-12-18T03:00:23.990Z,102544.34
2022-12-18T03:02:50.896Z,102558.19
2022-12-18T03:05:17.738Z,102549.00
2022-12-18T03:07:44.492Z,102549.44
2022-12-18T03:10:11.268Z,102550.47
2022-12-18T03:12:38.072Z,102557.97
2022-12-18T03:15:04.886Z,102557.38
2022-12-18T03:17:31.608Z,102561.63
2022-12-18T03:19:58.345Z,102562.91
2022-12-18T03:22:25.159Z,102568.06
2022-12-18T03:24:51.870Z,102563.84
2022-12-18T03:27:18.607Z,102576.28
2022-12-18T03:29:45.371Z,102566.16
2022-12-18T03:32:12.139Z,102577.00
2022-12-18T03:34:39.257Z,102579.22
2022-12-18T03:37:06.005Z,102580.69
2022-12-18T03:39:32.752Z,102581.34
2022-12-18T03:41:59.495Z,102582.03
2022-12-18T03:44:26.267Z,102575.84
2022-12-18T03:46:52.991Z,102565.91
2022-12-18T03:49:19.739Z,102574.94
2022-12-18T03:51:46.492Z,102574.72
2022-12-18T03:54:13.243Z,102577.94
2022-12-18T03:56:39.973Z,102584.91
2022-12-18T03:59:06.705Z,102573.03
2022-12-18T04:01:33.494Z,102566.06
2022-12-18T04:04:00.486Z,102557.78
2022-12-18T04:06:27.280Z,102562.56
2022-12-18T04:08:54.131Z,102568.53
2022-12-18T04:11:20.989Z,102572.09
2022-12-18T04:13:47.909Z,102561.22
2022-12-18T04:16:14.673Z,102557.09
2022-12-18T04:18:41.586Z,102553.06
2022-12-18T04:21:08.678Z,102559.56
2022-12-18T04:23:35.418Z,102555.09
2022-12-18T04:26:02.144Z,102561.63
2022-12-18T04:28:28.878Z,102557.50
2022-12-18T04:30:55.632Z,102566.16
2022-12-18T04:33:22.387Z,102560.78
2022-12-18T04:35:49.136Z,102560.59
2022-12-18T04:38:16.376Z,102556.22
2022-12-18T04:40:43.228Z,102555.25
2022-12-18T04:43:10.212Z,102546.31
2022-12-18T04:45:37.219Z,102554.00
2022-12-18T04:48:03.935Z,102561.22
2022-12-18T04:50:30.808Z,102557.53
2022-12-18T04:52:57.612Z,102561.59
2022-12-18T04:55:24.349Z,102570.16
2022-12-18T04:57:51.185Z,102568.59
2022-12-18T05:00:17.926Z,102588.13
2022-12-18T05:02:44.759Z,102589.41
2022-12-18T05:05:11.605Z,102588.44
2022-12-18T05:07:38.340Z,102586.44
2022-12-18T05:10:05.086Z,102584.44
2022-12-18T05:12:32.740Z,102593.88
2022-12-18T05:14:59.477Z,102596.75
2022-12-18T05:17:26.212Z,102595.47
2022-12-18T05:19:52.959Z,102593.38
2022-12-18T05:22:19.687Z,102592.31
2022-12-18T05:24:46.495Z,102588.13
2022-12-18T05:27:13.238Z,102586.88
2022-12-18T05:29:39.960Z,102585.66
2022-12-18T05:32:06.713Z,102586.97
2022-12-18T05:34:34.404Z,102585.53
2022-12-18T05:37:01.255Z,102589.97
2022-12-18T05:39:27.975Z,102588.72
2022-12-18T05:41:54.719Z,102580.88
2022-12-18T05:44:21.438Z,102579.66
2022-12-18T05:46:48.241Z,102588.16
2022-12-18T05:49:15.020Z,102582.75
2022-12-18T05:51:41.744Z,102592.31
2022-12-18T05:54:09.305Z,102595.56
2022-12-18T05:56:36.131Z,102608.59
2022-12-18T05:59:02.918Z,102610.06
2022-12-18T06:01:29.823Z,102617.09
2022-12-18T06:03:57.866Z,102621.88
2022-12-18T06:06:24.739Z,102615.28
2022-12-18T06:08:51.502Z,102618.13
2022-12-18T06:11:18.325Z,102625.88
2022-12-18T06:13:45.097Z,102629.59
2022-12-18T06:16:11.972Z,102616.47
2022-12-18T06:18:38.741Z,102613.31
2022-12-18T06:21:05.472Z,102620.53
2022-12-18T06:23:32.415Z,102614.38
2022-12-18T06:25:59.193Z,102610.25
2022-12-18T06:28:26.127Z,102615.47
2022-12-18T06:30:53.875Z,102607.78
2022-12-18T06:33:20.673Z,102612.94
2022-12-18T06:35:47.444Z,102609.28
2022-12-18T06:38:14.186Z,102615.94
2022-12-18T06:40:41.103Z,102623.28
2022-12-18T06:43:07.830Z,102622.59
2022-12-18T06:45:34.613Z,102612.53
2022-12-18T06:48:01.428Z,102612.16
2022-12-18T06:50:28.180Z,102617.66
2022-12-18T06:52:54.927Z,102622.06
2022-12-18T06:55:21.684Z,102620.28
2022-12-18T06:57:48.422Z,102614.28
2022-12-18T07:00:15.175Z,102628.09
2022-12-18T07:02:42.080Z,102618.44
2022-12-18T07:05:10.948Z,102620.16
2022-12-18T07:07:37.985Z,102621.41
2022-12-18T07:10:04.839Z,102626.09
2022-12-18T07:12:31.564Z,102632.03
2022-12-18T07:14:58.435Z,102634.69
2022-12-18T07:17:25.233Z,102631.63
2022-12-18T07:19:51.970Z,102628.66
2022-12-18T07:22:18.761Z,102644.22
2022-12-18T07:24:45.516Z,102644.91
2022-12-18T07:27:12.240Z,102650.88
2022-12-18T07:29:38.973Z,102654.97
2022-12-18T07:32:06.377Z,102665.38
2022-12-18T07:34:33.190Z,102675.00
2022-12-18T07:36:59.939Z,102682.53
2022-12-18T07:39:26.743Z,102685.59
2022-12-18T07:42:12.255Z,102685.75
2022-12-18T07:44:39.009Z,102685.34
2022-12-18T07:47:10.488Z,102686.56
2022-12-18T07:49:38.881Z,102683.75
2022-12-18T07:52:05.679Z,102683.44
2022-12-18T07:54:32.413Z,102685.69
2022-12-18T07:56:59.192Z,102676.94
2022-12-18T07:59:25.933Z,102680.16
2022-12-18T08:01:52.792Z,102684.47
2022-12-18T08:04:19.645Z,102689.75
2022-12-18T08:06:48.162Z,102695.41
2022-12-18T08:09:15.225Z,102706.03
2022-12-18T08:11:41.959Z,102696.94
2022-12-18T08:14:08.687Z,102704.25
2022-12-18T08:16:35.437Z,102703.22
2022-12-18T08:19:02.266Z,102698.69
2022-12-18T08:21:28.997Z,102704.53
2022-12-18T08:23:55.718Z,102713.25
2022-12-18T08:26:22.436Z,102707.06
2022-12-18T08:28:49.188Z,102711.97
2022-12-18T08:31:17.031Z,102708.72
2022-12-18T08:33:44.370Z,102710.03
2022-12-18T08:36:11.554Z,102712.59
2022-12-18T08:38:38.275Z,102710.03
2022-12-18T08:41:04.999Z,102706.59
2022-12-18T08:43:50.635Z,102706.97
2022-12-18T08:46:17.483Z,102706.44
2022-12-18T08:48:44.542Z,102699.22
2022-12-18T08:51:11.326Z,102690.06
2022-12-18T08:53:38.931Z,102696.44
2022-12-18T08:56:05.936Z,102704.28
2022-12-18T08:58:32.668Z,102703.19
2022-12-18T09:00:59.449Z,102708.53
2022-12-18T09:03:26.242Z,102703.16
2022-12-18T09:05:53.031Z,102705.22
2022-12-18T09:08:19.788Z,102699.00
2022-12-18T09:10:46.518Z,102700.31
2022-12-18T09:13:13.282Z,102693.53
2022-12-18T09:15:40.013Z,102700.63
2022-12-18T09:18:06.747Z,102699.31
2022-12-18T09:20:33.663Z,102688.13
2022-12-18T09:23:00.479Z,102689.84
2022-12-18T09:25:32.591Z,102690.03
2022-12-18T09:27:59.377Z,102683.25
2022-12-18T09:30:26.676Z,102676.56
2022-12-18T09:32:53.437Z,102665.88
2022-12-18T09:35:20.173Z,102662.44
2022-12-18T09:37:46.913Z,102659.66
2022-12-18T09:40:13.638Z,102664.28
2022-12-18T09:42:40.376Z,102663.34
2022-12-18T09:45:07.148Z,102658.19
2022-12-18T09:47:33.911Z,102656.41
2022-12-18T09:50:00.643Z,102657.41
2022-12-18T09:52:27.375Z,102652.19
2022-12-18T09:54:54.120Z,102653.56
2022-12-18T09:57:20.869Z,102651.88
2022-12-18T09:59:47.597Z,102639.88
2022-12-18T10:02:14.441Z,102635.56
2022-12-18T10:04:41.310Z,102622.16
2022-12-18T10:07:09.465Z,102627.69
2022-12-18T10:09:36.259Z,102614.75
2022-12-18T10:12:04.405Z,102625.50
2022-12-18T10:14:33.079Z,102633.22
2022-12-18T10:16:59.812Z,102626.59
2022-12-18T10:19:26.550Z,102623.69
2022-12-18T10:21:53.343Z,102623.63
2022-12-18T10:24:20.058Z,102610.03
2022-12-18T10:26:46.825Z,102612.22
2022-12-18T10:29:13.567Z,102609.88
2022-12-18T10:31:40.322Z,102614.03
2022-12-18T10:34:07.100Z,102610.03
2022-12-18T10:36:33.816Z,102609.63
2022-12-18T10:39:00.654Z,102616.75
2022-12-18T10:41:29.309Z,102599.38
2022-12-18T10:43:56.304Z,102606.25
2022-12-18T10:46:23.135Z,102611.84
2022-12-18T10:48:50.402Z,102613.53
2022-12-18T10:51:17.131Z,102615.03
2022-12-18T10:53:43.938Z,102613.63
2022-12-18T10:56:11.253Z,102613.53
2022-12-18T10:58:37.964Z,102611.53
2022-12-18T11:01:04.849Z,102626.19
2022-12-18T11:03:31.800Z,102632.72
2022-12-18T11:05:58.602Z,102636.59
2022-12-18T11:08:25.418Z,102637.03
2022-12-18T11:10:52.250Z,102649.75
2022-12-18T11:13:18.978Z,102649.00
2022-12-18T11:15:45.746Z,102646.88
2022-12-18T11:18:12.618Z,102647.56
2022-12-18T11:20:39.679Z,102640.34
2022-12-18T11:23:06.527Z,102637.91
2022-12-18T11:25:34.959Z,102629.91
2022-12-18T11:28:02.596Z,102616.00
2022-12-18T11:30:29.396Z,102613.53
2022-12-18T11:32:56.167Z,102613.97
2022-12-18T11:35:22.890Z,102616.19
2022-12-18T11:37:49.626Z,102614.78
2022-12-18T11:40:16.431Z,102612.69
2022-12-18T11:42:43.216Z,102625.16
2022-12-18T11:45:09.937Z,102619.63
2022-12-18T11:47:36.728Z,102620.78
2022-12-18T11:50:03.526Z,102611.59
2022-12-18T11:52:30.242Z,102608.44
2022-12-18T11:54:57.140Z,102610.50
2022-12-18T11:57:23.885Z,102614.97
2022-12-18T11:59:50.604Z,102608.41
2022-12-18T12:02:17.473Z,102594.88
2022-12-18T12:04:44.350Z,102593.19
2022-12-18T12:07:11.069Z,102581.66
2022-12-18T12:09:38.714Z,102578.84
2022-12-18T12:12:05.444Z,102583.94
2022-12-18T12:14:32.169Z,102581.31
2022-12-18T12:16:58.899Z,102597.78
2022-12-18T12:19:25.623Z,102599.38
2022-12-18T12:21:52.356Z,102592.50
2022-12-18T12:24:19.094Z,102596.91
2022-12-18T12:26:45.827Z,102584.84
2022-12-18T12:29:19.425Z,102592.09
2022-12-18T12:31:47.839Z,102589.13
2022-12-18T12:34:14.609Z,102583.56
2022-12-18T12:36:41.370Z,102571.78
2022-12-18T12:39:08.232Z,102562.94
2022-12-18T12:41:53.948Z,102558.22
2022-12-18T12:44:20.689Z,102560.03
2022-12-18T12:46:47.703Z,102548.47
2022-12-18T12:49:15.045Z,102556.63
2022-12-18T12:51:43.392Z,102544.91
2022-12-18T12:54:10.149Z,102549.81
2022-12-18T12:56:38.095Z,102557.03
2022-12-18T12:59:05.062Z,102560.91
2022-12-18T13:01:31.881Z,102553.66
2022-12-18T13:03:58.988Z,102554.28
2022-12-18T13:06:26.802Z,102556.28
2022-12-18T13:08:53.760Z,102550.72
2022-12-18T13:11:39.305Z,102546.84
2022-12-18T13:14:06.628Z,102532.16
2022-12-18T13:16:34.048Z,102528.47
2022-12-18T13:19:00.810Z,102534.34
2022-12-18T13:21:28.027Z,102544.81
2022-12-18T13:23:54.812Z,102536.38
2022-12-18T13:26:27.944Z,102537.13
2022-12-18T13:28:56.040Z,102535.47
2022-12-18T13:31:22.789Z,102526.31
2022-12-18T13:36:37.139Z,102521.84
2022-12-18T13:39:03.973Z,102516.47
2022-12-18T13:41:30.759Z,102508.53
2022-12-18T13:43:58.945Z,102507.06
2022-12-18T13:46:25.719Z,102514.94
2022-12-18T13:48:53.052Z,102507.31
2022-12-18T13:51:19.795Z,102514.09
2022-12-18T13:53:46.860Z,102520.97
2022-12-18T13:56:13.577Z,102520.38
2022-12-18T13:58:40.685Z,102512.75
2022-12-18T14:01:07.684Z,102523.31
2022-12-18T14:03:34.938Z,102521.03
2022-12-18T14:06:01.785Z,102525.25
2022-12-18T14:08:28.572Z,102515.75
2022-12-18T14:10:55.626Z,102514.13
2022-12-18T14:13:22.362Z,102508.94
2022-12-18T14:15:49.451Z,102499.97
2022-12-18T14:18:16.362Z,102506.97
2022-12-18T14:20:45.447Z,102506.03
2022-12-18T14:23:15.907Z,102506.66
2022-12-18T14:25:42.634Z,102511.72
2022-12-18T14:28:09.372Z,102512.81
2022-12-18T14:30:36.124Z,102501.91
2022-12-18T14:33:02.908Z,102501.31
2022-12-18T14:35:29.659Z,102506.63
2022-12-18T14:37:56.921Z,102496.50
2022-12-18T14:40:23.643Z,102509.66
2022-12-18T14:42:50.389Z,102502.34
2022-12-18T14:45:17.107Z,102506.94
2022-12-18T14:47:43.867Z,102501.00
2022-12-18T14:50:10.638Z,102499.09
2022-12-18T14:52:37.356Z,102504.38
2022-12-18T14:55:04.081Z,102509.75
2022-12-18T14:57:30.826Z,102520.03
2022-12-18T14:59:57.554Z,102521.13
2022-12-18T15:02:24.527Z,102524.53
2022-12-18T15:04:51.411Z,102528.84
2022-12-18T15:07:18.133Z,102524.91
2022-12-18T15:09:45.993Z,102523.22
2022-12-18T15:12:12.908Z,102510.81
2022-12-18T15:14:39.642Z,102501.94
2022-12-18T15:17:06.456Z,102507.59
2022-12-18T15:19:33.191Z,102505.94
2022-12-18T15:22:05.871Z,102496.09
2022-12-18T15:24:33.211Z,102489.16
2022-12-18T15:26:59.970Z,102492.13
2022-12-18T15:29:27.040Z,102490.88
2022-12-18T15:31:53.789Z,102488.53
2022-12-18T15:34:21.534Z,102486.41
2022-12-18T15:36:48.357Z,102485.69
2022-12-18T15:39:15.141Z,102482.16
2022-12-18T15:42:01.907Z,102488.25
2022-12-18T15:44:28.633Z,102493.56
2022-12-18T15:46:55.364Z,102497.78
2022-12-18T15:49:22.125Z,102496.38
2022-12-18T15:51:48.847Z,102496.94
2022-12-18T15:54:16.919Z,102500.00
2022-12-18T15:57:02.241Z,102488.13
2022-12-18T15:59:29.330Z,102487.44
2022-12-18T16:01:56.408Z,102482.25
2022-12-18T16:04:23.320Z,102480.66
2022-12-18T16:09:36.786Z,102456.34
2022-12-18T16:12:03.507Z,102459.94
2022-12-18T16:14:30.250Z,102458.28
2022-12-18T16:16:57.309Z,102457.72
2022-12-18T16:19:24.050Z,102461.22
2022-12-18T16:21:50.977Z,102463.56
2022-12-18T16:24:17.716Z,102455.63
2022-12-18T16:26:44.444Z,102449.75
2022-12-18T16:29:11.239Z,102436.94
2022-12-18T16:31:38.861Z,102431.63
2022-12-18T16:34:05.576Z,102419.72
2022-12-18T16:36:32.315Z,102404.63
2022-12-18T16:38:59.097Z,102396.34
2022-12-18T16:41:32.267Z,102389.94
2022-12-18T16:43:59.074Z,102390.75
2022-12-18T16:46:25.858Z,102387.84
2022-12-18T16:48:52.590Z,102384.13
2022-12-18T16:51:19.308Z,102375.59
2022-12-18T16:53:46.139Z,102383.38
2022-12-18T16:56:13.094Z,102381.56
2022-12-18T16:58:39.823Z,102384.25
2022-12-18T17:01:08.513Z,102398.41
2022-12-18T17:03:35.293Z,102387.34
2022-12-18T17:06:02.093Z,102384.31
2022-12-18T17:08:28.837Z,102392.69
2022-12-18T17:10:55.556Z,102395.59
2022-12-18T17:13:25.903Z,102401.88
2022-12-18T17:15:53.139Z,102394.56
2022-12-18T17:18:21.270Z,102390.88
2022-12-18T17:20:48.074Z,102382.19
2022-12-18T17:23:14.856Z,102376.53
2022-12-18T17:25:41.637Z,102379.97
2022-12-18T17:28:08.388Z,102369.59
2022-12-18T17:30:35.120Z,102366.66
2022-12-18T17:33:01.879Z,102363.94
2022-12-18T17:35:28.592Z,102370.88
2022-12-18T17:37:55.336Z,102376.97
2022-12-18T17:40:22.076Z,102386.94
2022-12-18T17:42:48.783Z,102387.53
2022-12-18T17:45:15.573Z,102388.00
2022-12-18T17:47:42.322Z,102373.31
2022-12-18T17:50:09.167Z,102367.50
2022-12-18T17:52:36.384Z,102354.13
2022-12-18T17:55:03.117Z,102349.16
2022-12-18T17:57:29.855Z,102353.94
2022-12-18T17:59:56.612Z,102357.72
2022-12-18T18:02:23.548Z,102359.44
2022-12-18T18:04:50.416Z,102363.63
2022-12-18T18:07:17.156Z,102360.09
2022-12-18T18:09:43.956Z,102358.16
2022-12-18T18:12:29.567Z,102346.31
2022-12-18T18:14:56.337Z,102344.66
2022-12-18T18:17:23.072Z,102351.78
2022-12-18T18:19:49.934Z,102339.47
2022-12-18T18:22:16.686Z,102326.75
2022-12-18T18:24:44.973Z,102312.06
2022-12-18T18:27:11.767Z,102328.56
2022-12-18T18:29:38.544Z,102313.84
2022-12-18T18:32:05.316Z,102327.09
2022-12-18T18:34:32.120Z,102320.06
2022-12-18T18:36:59.036Z,102315.03
2022-12-18T18:39:25.759Z,102310.31
2022-12-18T18:41:52.505Z,102322.41
2022-12-18T18:44:20.402Z,102324.91
2022-12-18T18:46:51.608Z,102310.88
2022-12-18T18:49:18.577Z,102304.94
2022-12-18T18:51:45.303Z,102301.84
2022-12-18T18:54:12.657Z,102289.28
2022-12-18T18:57:18.834Z,102287.13
2022-12-18T18:59:31.520Z,102277.53
2022-12-18T19:01:59.800Z,102280.19
2022-12-18T19:04:28.380Z,102277.31
2022-12-18T19:06:55.135Z,102274.47
2022-12-18T19:09:22.581Z,102282.53
2022-12-18T19:12:08.185Z,102268.69
2022-12-18T19:14:35.117Z,102274.84
2022-12-18T19:17:01.916Z,102271.78
2022-12-18T19:19:29.298Z,102261.56
2022-12-18T19:21:56.393Z,102266.66
2022-12-18T19:24:23.128Z,102254.69
2022-12-18T19:26:49.928Z,102252.56
2022-12-18T19:29:16.666Z,102248.50
2022-12-18T19:31:43.578Z,102251.25
2022-12-18T19:34:10.348Z,102232.13
2022-12-18T19:36:37.219Z,102231.34
2022-12-18T19:39:04.056Z,102232.88
2022-12-18T19:41:31.473Z,102232.78
2022-12-18T19:44:02.245Z,102231.06
2022-12-18T19:46:35.163Z,102231.38
2022-12-18T19:49:01.950Z,102237.38
2022-12-18T19:51:30.529Z,102238.53
2022-12-18T19:53:59.410Z,102245.38
2022-12-18T19:56:27.874Z,102239.47
2022-12-18T19:58:54.602Z,102233.03
2022-12-18T20:01:21.434Z,102227.75
2022-12-18T20:03:52.331Z,102230.25
2022-12-18T20:06:21.154Z,102224.78
2022-12-18T20:08:47.929Z,102223.59
2022-12-18T20:11:14.685Z,102222.16
2022-12-18T20:13:41.608Z,102223.78
2022-12-18T20:16:08.741Z,102227.91
2022-12-18T20:18:35.624Z,102232.00
2022-12-18T20:21:02.405Z,102224.78
2022-12-18T20:23:30.259Z,102220.06
2022-12-18T20:25:59.537Z,102214.47
2022-12-18T20:28:26.405Z,102215.66
2022-12-18T20:30:53.132Z,102223.13
2022-12-18T20:33:19.867Z,102226.56
2022-12-18T20:35:46.589Z,102213.47
2022-12-18T20:38:14.237Z,102203.97
2022-12-18T20:40:41.325Z,102204.50
2022-12-18T20:43:11.306Z,102198.53
2022-12-18T20:45:40.629Z,102196.00
2022-12-18T20:48:09.589Z,102198.25
2022-12-18T20:50:36.388Z,102203.75
2022-12-18T20:53:03.153Z,102211.81
2022-12-18T20:55:29.944Z,102206.19
2022-12-18T20:57:56.680Z,102199.53
2022-12-18T21:00:23.411Z,102182.16
2022-12-18T21:02:50.292Z,102191.81
2022-12-18T21:05:17.135Z,102194.94
2022-12-18T21:07:43.971Z,102179.09
2022-12-18T21:10:10.718Z,102166.44
2022-12-18T21:13:00.118Z,102171.66
2022-12-18T21:15:30.080Z,102170.91
2022-12-18T21:17:56.895Z,102165.28
2022-12-18T21:20:23.878Z,102154.47
2022-12-18T21:22:50.927Z,102154.09
2022-12-18T21:25:19.415Z,102148.09
2022-12-18T21:27:46.164Z,102154.94
2022-12-18T21:30:13.904Z,102154.06
2022-12-18T21:32:40.647Z,102152.06
2022-12-18T21:35:07.362Z,102162.28
2022-12-18T21:37:34.164Z,102152.75
2022-12-18T21:40:00.921Z,102152.59
2022-12-18T21:42:46.528Z,102151.34
2022-12-18T21:45:13.279Z,102153.50
2022-12-18T21:47:40.029Z,102158.34
2022-12-18T21:50:06.765Z,102147.56
2022-12-18T21:52:33.484Z,102143.53
2022-12-18T21:55:06.666Z,102148.22
2022-12-18T21:57:35.573Z,102144.16
2022-12-18T22:00:02.990Z,102138.84
2022-12-18T22:02:30.087Z,102129.63
2022-12-18T22:04:56.998Z,102117.47
2022-12-18T22:07:23.750Z,102108.75
2022-12-18T22:09:50.477Z,102108.75
2022-12-18T22:12:34.999Z,102101.69
2022-12-18T22:15:01.888Z,102101.75
2022-12-18T22:17:28.820Z,102108.97
2022-12-18T22:19:56.137Z,102108.69
2022-12-18T22:22:22.940Z,102094.75
2022-12-18T22:24:49.662Z,102090.31
2022-12-18T22:27:16.394Z,102084.13
2022-12-18T22:30:01.935Z,102060.06
2022-12-18T22:32:30.738Z,102056.03
2022-12-18T22:35:01.841Z,102062.00
2022-12-18T22:37:33.005Z,102077.22
2022-12-18T22:39:59.752Z,102076.44
2022-12-18T22:42:30.342Z,102063.66
2022-12-18T22:44:57.091Z,102058.31
2022-12-18T22:47:28.019Z,102058.13
2022-12-18T22:49:56.645Z,102039.34
2022-12-18T22:52:24.337Z,102032.25
2022-12-18T22:54:53.613Z,102048.41
2022-12-18T22:57:21.402Z,102046.56
2022-12-18T22:59:48.142Z,102044.34
2022-12-18T23:02:15.052Z,102058.03
2022-12-18T23:04:41.877Z,102034.09
2022-12-18T23:07:08.684Z,102024.84
2022-12-18T23:09:37.968Z,102031.19
2022-12-18T23:12:04.708Z,102018.41
2022-12-18T23:14:31.715Z,102016.22
2022-12-18T23:16:58.453Z,102025.41
2022-12-18T23:19:25.227Z,102014.97
2022-12-18T23:21:51.976Z,102017.84
2022-12-18T23:24:21.595Z,102009.22
2022-12-18T23:26:48.396Z,101999.84
2022-12-18T23:29:15.135Z,102004.75
2022-12-18T23:31:41.896Z,102003.59
2022-12-18T23:34:08.842Z,102004.94
2022-12-18T23:36:45.502Z,101991.88
2022-12-18T23:39:25.810Z,101990.00
2022-12-18T23:41:56.661Z,101982.56
2022-12-18T23:44:23.387Z,101971.09
2022-12-18T23:46:50.180Z,101980.25
2022-12-18T23:49:17.000Z,101972.09
2022-12-18T23:51:43.728Z,101969.88
2022-12-18T23:54:10.471Z,101967.41
2022-12-18T23:56:37.313Z,101967.03
2022-12-18T23:59:04.069Z,101967.63
